Time;durP1;ratioP1;P1;durP2;ratioP2;P2;SDS_P1;SDS_P2;PMS_P1;PMS_P2;Temp;Humidity;BMP_temperature;BMP_pressure;BME280_temperature;BME280_humidity;BME280_pressure;Samples;Min_cycle;Max_cycle;Signal;HPM_P1;HPM_P2
2023/07/28 00:01:59;;;;;;;2.58;1.77;;;23.00;99.90;;;;;;10059167;28;20045;-72
2023/07/28 00:06:50;;;;;;;3.97;2.10;;;23.00;99.90;;;;;;10061189;28;20033;-72
2023/07/28 00:11:41;;;;;;;2.53;1.55;;;23.00;99.90;;;;;;10061892;28;20155;-71
2023/07/28 00:16:34;;;;;;;3.70;2.00;;;23.00;99.90;;;;;;10061462;28;20511;-71
2023/07/28 00:21:27;;;;;;;3.25;1.65;;;23.00;99.90;;;;;;10061437;28;20602;-71
2023/07/28 00:26:17;;;;;;;4.70;2.88;;;22.90;99.90;;;;;;10061281;28;20033;-71
2023/07/28 00:31:08;;;;;;;2.33;1.98;;;22.90;99.90;;;;;;10060696;28;20099;-72
2023/07/28 00:35:58;;;;;;;2.50;1.77;;;22.90;99.90;;;;;;10061055;28;20033;-71
2023/07/28 00:40:49;;;;;;;3.88;2.08;;;22.80;99.90;;;;;;10059865;28;20029;-72
2023/07/28 00:45:40;;;;;;;3.33;2.10;;;22.80;99.90;;;;;;10060640;28;20022;-73
2023/07/28 00:50:30;;;;;;;1.98;1.48;;;22.70;99.90;;;;;;10059841;28;20527;-73
2023/07/28 00:55:22;;;;;;;2.72;1.58;;;22.70;99.90;;;;;;10060273;28;20045;-71
2023/07/28 01:00:13;;;;;;;3.78;2.17;;;22.70;99.90;;;;;;10067181;28;20042;-72
2023/07/28 01:05:04;;;;;;;3.88;1.77;;;22.70;99.90;;;;;;10059632;28;20202;-72
2023/07/28 01:10:22;;;;;;;2.13;1.48;;;22.70;99.90;;;;;;10060203;28;20051;-73
2023/07/28 01:15:14;;;;;;;2.20;1.50;;;22.70;99.90;;;;;;10056702;28;20393;-73
2023/07/28 01:20:06;;;;;;;3.38;1.60;;;22.50;99.90;;;;;;10059272;28;20116;-73
2023/07/28 01:25:14;;;;;;;2.97;1.58;;;22.50;99.90;;;;;;10060572;28;20048;-74
2023/07/28 01:30:05;;;;;;;2.60;1.73;;;22.50;99.90;;;;;;10058816;28;20412;-72
2023/07/28 01:34:56;;;;;;;3.10;1.65;;;22.50;99.90;;;;;;10058945;28;20037;-70
2023/07/28 01:39:47;;;;;;;4.47;1.77;;;22.50;99.90;;;;;;10056866;28;20475;-71
2023/07/28 01:44:37;;;;;;;2.92;2.03;;;22.40;99.90;;;;;;10058579;28;20320;-72
2023/07/28 01:49:28;;;;;;;3.30;2.05;;;22.40;99.90;;;;;;10058714;28;20037;-72
2023/07/28 01:54:18;;;;;;;2.78;1.40;;;22.40;99.90;;;;;;10058102;28;20506;-73
2023/07/28 01:59:09;;;;;;;2.33;1.50;;;22.40;99.90;;;;;;10063525;28;20045;-72
2023/07/28 02:03:59;;;;;;;2.30;1.55;;;22.30;99.90;;;;;;10057814;28;20403;-72
2023/07/28 02:08:50;;;;;;;2.92;1.83;;;22.30;99.90;;;;;;10050860;28;20042;-72
2023/07/28 02:13:41;;;;;;;2.45;1.83;;;22.20;99.90;;;;;;10058174;28;20026;-72
2023/07/28 02:18:31;;;;;;;1.85;1.40;;;22.20;99.90;;;;;;10056803;28;20176;-71
2023/07/28 02:23:22;;;;;;;2.80;1.90;;;22.10;99.90;;;;;;10057914;28;20026;-72
2023/07/28 02:28:12;;;;;;;5.72;1.48;;;22.00;99.90;;;;;;10056809;28;20041;-72
2023/07/28 02:33:03;;;;;;;2.08;1.80;;;22.00;99.90;;;;;;10051372;28;20037;-72
2023/07/28 02:37:54;;;;;;;2.72;1.55;;;22.10;99.90;;;;;;10057062;28;20038;-72
2023/07/28 02:42:44;;;;;;;3.42;1.50;;;22.00;99.90;;;;;;10056905;28;20013;-72
2023/07/28 02:47:35;;;;;;;2.47;1.70;;;22.10;99.90;;;;;;10056699;28;20349;-73
2023/07/28 02:52:26;;;;;;;2.30;1.48;;;22.10;99.90;;;;;;10057330;28;20049;-72
2023/07/28 02:57:16;;;;;;;2.55;1.67;;;22.00;99.90;;;;;;10062610;28;20037;-73
2023/07/28 03:02:07;;;;;;;2.67;1.55;;;22.00;99.90;;;;;;10055296;28;20487;-73
2023/07/28 03:06:57;;;;;;;2.88;1.73;;;22.10;99.90;;;;;;10052148;28;20407;-72
2023/07/28 03:11:48;;;;;;;3.40;1.40;;;22.00;99.90;;;;;;10049932;28;20037;-72
2023/07/28 03:16:40;;;;;;;2.28;1.73;;;22.00;99.90;;;;;;10055522;28;20045;-73
2023/07/28 03:21:34;;;;;;;1.83;1.38;;;22.00;99.90;;;;;;10056170;28;20060;-73
2023/07/28 03:26:24;;;;;;;2.38;1.50;;;22.00;99.90;;;;;;10055354;28;20444;-72
2023/07/28 03:31:15;;;;;;;2.70;1.52;;;22.00;99.90;;;;;;10058539;28;20025;-72
2023/07/28 03:36:06;;;;;;;3.63;2.00;;;22.00;99.90;;;;;;10063151;28;20037;-72
2023/07/28 03:40:56;;;;;;;1.92;1.40;;;22.00;99.90;;;;;;10062687;28;20200;-73
2023/07/28 03:45:47;;;;;;;1.92;1.60;;;22.00;99.90;;;;;;10062621;28;20091;-72
2023/07/28 03:50:38;;;;;;;4.05;2.00;;;22.00;99.90;;;;;;10064415;28;20073;-72
2023/07/28 03:55:28;;;;;;;4.13;1.63;;;22.00;99.90;;;;;;10064679;28;20112;-74
2023/07/28 04:00:19;;;;;;;3.15;1.30;;;22.00;99.90;;;;;;10070198;28;20030;-73
2023/07/28 04:05:10;;;;;;;1.88;1.33;;;21.90;99.90;;;;;;10062789;28;20037;-73
2023/07/28 04:10:00;;;;;;;2.17;1.63;;;21.90;99.90;;;;;;10061619;28;20104;-72
2023/07/28 04:14:51;;;;;;;2.88;1.38;;;21.90;99.90;;;;;;10062640;28;20411;-72
2023/07/28 04:19:41;;;;;;;2.35;1.70;;;21.90;99.90;;;;;;10061945;28;20172;-71
2023/07/28 04:24:32;;;;;;;2.45;1.17;;;22.00;99.90;;;;;;10061876;28;20025;-72
2023/07/28 04:29:23;;;;;;;2.80;1.60;;;21.90;99.90;;;;;;10060586;28;20033;-72
2023/07/28 04:34:13;;;;;;;3.13;1.85;;;22.00;99.90;;;;;;10060975;28;20052;-72
2023/07/28 04:39:04;;;;;;;2.33;1.63;;;22.00;99.90;;;;;;10075993;28;20039;-72
2023/07/28 04:43:56;;;;;;;1.58;1.48;;;21.90;99.90;;;;;;10059833;28;20033;-72
2023/07/28 04:48:46;;;;;;;3.05;1.60;;;21.90;99.90;;;;;;10060668;28;20060;-72
2023/07/28 04:53:37;;;;;;;3.22;1.88;;;21.80;99.90;;;;;;10060204;28;20580;-72
2023/07/28 04:58:27;;;;;;;1.48;1.30;;;21.70;99.90;;;;;;10066886;28;20263;-72
2023/07/28 05:03:18;;;;;;;2.70;1.90;;;21.70;99.90;;;;;;10058401;28;20033;-72
2023/07/28 05:08:09;;;;;;;2.72;1.65;;;21.70;99.90;;;;;;10052627;28;20033;-71
2023/07/28 05:12:59;;;;;;;3.25;2.00;;;21.70;99.90;;;;;;10066825;28;20120;-72
2023/07/28 05:17:50;;;;;;;2.75;2.00;;;21.80;99.90;;;;;;10058276;28;20040;-72
2023/07/28 05:22:41;;;;;;;2.10;1.50;;;21.80;99.90;;;;;;10058567;28;20116;-72
2023/07/28 05:27:31;;;;;;;3.30;2.25;;;21.90;99.90;;;;;;10066569;28;20506;-72
2023/07/28 05:32:22;;;;;;;3.20;2.03;;;21.80;99.90;;;;;;10059057;28;20099;-72
2023/07/28 05:37:12;;;;;;;3.90;2.30;;;21.80;99.90;;;;;;10058245;28;20065;-71
2023/07/28 05:42:03;;;;;;;3.95;2.10;;;21.90;99.90;;;;;;10058259;28;20460;-73
2023/07/28 05:46:54;;;;;;;3.17;1.73;;;21.90;99.90;;;;;;10058600;28;20416;-72
2023/07/28 05:51:44;;;;;;;3.30;1.60;;;21.90;99.90;;;;;;10057278;28;20038;-72
2023/07/28 05:56:35;;;;;;;3.05;2.40;;;21.90;99.90;;;;;;10061611;28;20090;-71
2023/07/28 06:01:27;;;;;;;3.78;2.40;;;22.00;99.90;;;;;;10060980;28;20108;-71
2023/07/28 06:06:18;;;;;;;4.35;2.33;;;21.90;99.90;;;;;;10057421;28;20025;-71
2023/07/28 06:11:09;;;;;;;3.55;1.73;;;21.90;99.90;;;;;;10057040;28;20022;-73
2023/07/28 06:15:59;;;;;;;3.42;1.90;;;21.80;99.90;;;;;;10057147;28;20117;-71
2023/07/28 06:20:50;;;;;;;2.95;1.92;;;21.80;99.90;;;;;;10057006;28;20038;-72
2023/07/28 06:25:44;;;;;;;3.22;1.65;;;21.70;99.90;;;;;;10057272;28;20103;-71
2023/07/28 06:30:35;;;;;;;4.38;2.17;;;21.70;99.90;;;;;;10056515;28;20021;-71
2023/07/28 06:35:27;;;;;;;4.28;2.70;;;21.70;99.90;;;;;;10054478;28;20499;-74
2023/07/28 06:40:18;;;;;;;3.10;2.42;;;21.80;99.90;;;;;;10055324;28;20479;-75
2023/07/28 06:45:09;;;;;;;8.82;2.80;;;21.80;99.90;;;;;;10060960;28;20029;-74
2023/07/28 06:49:59;;;;;;;8.13;3.28;;;21.90;99.90;;;;;;10055963;28;20032;-73
2023/07/28 06:54:50;;;;;;;6.80;3.05;;;21.90;99.90;;;;;;10055688;28;20053;-73
2023/07/28 06:59:42;;;;;;;6.78;3.35;;;21.90;99.90;;;;;;10056676;28;20036;-73
2023/07/28 07:04:32;;;;;;;7.05;2.78;;;21.90;99.90;;;;;;10052833;28;20021;-73
2023/07/28 07:09:23;;;;;;;4.82;2.47;;;22.10;99.90;;;;;;10058149;28;20087;-74
2023/07/28 07:14:14;;;;;;;12.63;3.75;;;22.00;99.90;;;;;;10066126;28;20051;-74
2023/07/28 07:19:05;;;;;;;6.40;3.35;;;21.90;99.90;;;;;;10060189;28;20136;-72
2023/07/28 07:23:56;;;;;;;5.45;3.28;;;22.00;99.90;;;;;;10068872;28;20044;-75
2023/07/28 07:28:46;;;;;;;7.20;3.13;;;22.10;99.90;;;;;;10060971;28;20026;-73
2023/07/28 07:33:37;;;;;;;4.07;2.30;;;22.10;99.90;;;;;;10061155;28;20061;-73
2023/07/28 07:38:28;;;;;;;4.03;2.65;;;22.10;99.90;;;;;;10059780;28;20220;-73
2023/07/28 07:43:20;;;;;;;2.95;1.58;;;22.20;99.90;;;;;;10060802;28;20041;-73
2023/07/28 07:48:10;;;;;;;3.33;1.77;;;22.30;99.90;;;;;;10065097;28;20495;-76
2023/07/28 07:53:01;;;;;;;2.75;1.60;;;22.20;99.90;;;;;;10058959;28;20045;-72
2023/07/28 07:57:52;;;;;;;3.78;2.00;;;22.30;99.90;;;;;;10059126;28;20041;-73
2023/07/28 08:02:43;;;;;;;3.38;1.80;;;22.30;99.90;;;;;;10060515;28;20061;-81
2023/07/28 08:07:34;;;;;;;3.33;1.65;;;22.30;99.90;;;;;;10059612;28;20030;-75
2023/07/28 08:12:25;;;;;;;5.25;2.25;;;22.30;99.90;;;;;;10060998;28;20075;-78
2023/07/28 08:17:15;;;;;;;5.50;2.28;;;22.30;99.90;;;;;;10058564;28;20124;-79
2023/07/28 08:22:07;;;;;;;5.28;2.00;;;22.40;99.90;;;;;;10060741;28;20014;-77
2023/07/28 08:26:58;;;;;;;3.10;1.58;;;22.40;99.90;;;;;;10061769;28;20041;-80
2023/07/28 08:31:48;;;;;;;5.05;1.95;;;22.40;99.90;;;;;;10059478;28;20550;-81
2023/07/28 08:36:39;;;;;;;4.88;2.70;;;22.40;99.90;;;;;;10059133;28;20056;-78
2023/07/28 08:41:30;;;;;;;5.30;2.63;;;22.50;99.90;;;;;;10063934;28;20487;-76
2023/07/28 08:46:21;;;;;;;5.72;2.25;;;22.50;99.90;;;;;;10058295;28;20033;-72
2023/07/28 08:51:13;;;;;;;3.60;2.20;;;22.50;99.90;;;;;;10058675;28;20517;-74
2023/07/28 08:56:04;;;;;;;4.15;2.13;;;22.60;99.90;;;;;;10057387;28;20052;-76
2023/07/28 09:00:54;;;;;;;4.40;2.55;;;22.80;99.90;;;;;;10088499;28;20112;-77
2023/07/28 09:05:46;;;;;;;3.10;2.30;;;22.80;99.90;;;;;;10059696;28;20042;-77
2023/07/28 09:10:55;;;;;;;4.75;3.03;;;22.80;99.90;;;;;;10050681;28;20028;-77
2023/07/28 09:15:46;;;;;;;4.05;2.10;;;22.80;99.90;;;;;;10058156;28;20037;-77
2023/07/28 09:20:41;;;;;;;3.75;2.53;;;22.90;99.90;;;;;;10058345;28;20033;-76
2023/07/28 09:25:34;;;;;;;2.38;1.35;;;22.80;99.90;;;;;;10058011;28;20064;-75
2023/07/28 09:30:26;;;;;;;6.88;2.45;;;22.90;99.90;;;;;;10056343;28;20026;-78
2023/07/28 09:35:18;;;;;;;4.07;2.25;;;22.90;99.90;;;;;;10060580;28;20404;-78
2023/07/28 09:40:13;;;;;;;2.88;1.33;;;23.00;99.90;;;;;;10057906;28;20033;-80
2023/07/28 09:45:05;;;;;;;;;;;23.00;99.90;;;;;;10061739;28;20037;-76
2023/07/28 09:49:58;;;;;;;2.38;1.55;;;23.10;99.90;;;;;;10058527;28;20478;-80
2023/07/28 09:54:54;;;;;;;2.78;1.50;;;23.10;99.90;;;;;;10052376;28;20136;-80
2023/07/28 09:59:46;;;;;;;2.30;1.40;;;23.00;99.90;;;;;;10055306;28;20438;-88
2023/07/28 10:04:38;;;;;;;2.55;1.40;;;22.90;99.90;;;;;;10055830;28;20411;-74
2023/07/28 10:09:30;;;;;;;1.15;1.00;;;22.60;99.90;;;;;;10056962;28;20039;-81
2023/07/28 10:14:39;;;;;;;3.10;1.90;;;22.60;99.90;;;;;;10052820;28;20073;-82
2023/07/28 10:19:39;;;;;;;3.38;2.53;;;22.60;99.90;;;;;;10056579;28;20099;-82
2023/07/28 10:24:56;;;;;;;3.38;1.50;;;22.70;99.90;;;;;;10057423;28;20108;-82
2023/07/28 10:30:01;;;;;;;2.13;1.35;;;22.70;99.90;;;;;;10064846;28;20108;-83
2023/07/28 10:35:05;;;;;;;2.80;1.92;;;22.70;99.90;;;;;;10054862;28;20041;-82
2023/07/28 10:40:28;;;;;;;2.38;1.70;;;22.80;99.90;;;;;;10056316;28;20033;-83
2023/07/28 10:45:19;;;;;;;4.65;1.85;;;22.90;99.90;;;;;;10044916;28;20041;-81
2023/07/28 10:50:10;;;;;;;3.13;1.45;;;22.80;99.90;;;;;;10055608;28;20039;-81
2023/07/28 10:55:01;;;;;;;3.00;2.05;;;22.80;99.90;;;;;;10073231;28;20061;-81
2023/07/28 10:59:52;;;;;;;4.28;2.22;;;22.70;99.90;;;;;;10060509;28;20032;-81
2023/07/28 11:04:49;;;;;;;3.05;1.88;;;22.70;99.90;;;;;;10057204;28;20407;-81
2023/07/28 11:09:40;;;;;;;3.17;1.67;;;22.70;99.90;;;;;;10064181;28;20108;-82
2023/07/28 11:14:30;;;;;;;4.35;1.95;;;22.70;99.90;;;;;;10056489;28;20041;-81
2023/07/28 11:19:24;;;;;;;3.97;2.13;;;22.70;99.90;;;;;;10054834;28;20544;-77
2023/07/28 11:24:21;;;;;;;4.15;1.92;;;22.80;99.90;;;;;;10052070;28;20029;-77
2023/07/28 11:29:12;;;;;;;2.63;1.55;;;22.70;99.90;;;;;;10047972;28;20041;-81
2023/07/28 11:34:03;;;;;;;1.92;1.45;;;22.80;99.90;;;;;;10052007;28;20133;-79
2023/07/28 11:38:55;;;;;;;2.80;1.83;;;22.90;99.90;;;;;;10047133;28;20034;-82
2023/07/28 11:43:48;;;;;;;3.80;1.90;;;22.90;99.90;;;;;;10039811;28;20493;-82
2023/07/28 11:48:39;;;;;;;2.85;1.60;;;22.80;99.90;;;;;;10052459;28;20036;-81
2023/07/28 11:53:33;;;;;;;1.98;1.40;;;22.80;99.90;;;;;;10056435;28;20068;-80
2023/07/28 11:58:25;;;;;;;2.95;1.45;;;22.70;99.90;;;;;;10051923;28;20039;-79
2023/07/28 12:03:16;;;;;;;3.65;1.90;;;22.70;99.90;;;;;;10060216;28;20072;-76
2023/07/28 12:08:09;;;;;;;2.58;1.75;;;22.80;99.90;;;;;;10060571;28;20495;-74
2023/07/28 12:13:05;;;;;;;3.13;2.10;;;22.90;99.90;;;;;;10059901;28;20021;-74
2023/07/28 12:18:13;;;;;;;2.53;1.50;;;23.00;99.90;;;;;;10059408;28;20049;-78
2023/07/28 12:23:04;;;;;;;3.50;1.90;;;22.90;99.90;;;;;;10055305;28;20113;-79
2023/07/28 12:27:55;;;;;;;2.40;1.80;;;22.80;99.90;;;;;;10057423;28;20025;-77
2023/07/28 12:32:46;;;;;;;2.40;1.70;;;22.90;99.90;;;;;;10056632;28;20033;-75
2023/07/28 12:37:37;;;;;;;4.85;2.15;;;23.00;99.90;;;;;;10058113;28;20039;-76
2023/07/28 12:42:28;;;;;;;2.50;1.50;;;23.00;99.90;;;;;;10059795;28;20373;-79
2023/07/28 12:47:18;;;;;;;2.97;2.25;;;23.00;99.90;;;;;;10076475;28;20033;-81
2023/07/28 12:52:09;;;;;;;3.35;1.88;;;22.90;99.90;;;;;;10061486;28;20041;-78
2023/07/28 12:57:02;;;;;;;2.70;1.80;;;22.80;99.90;;;;;;10058044;28;20041;-82
2023/07/28 13:01:53;;;;;;;2.58;1.65;;;22.80;99.90;;;;;;10060464;28;20036;-75
2023/07/28 13:06:44;;;;;;;3.20;1.80;;;22.80;99.90;;;;;;10058233;28;20414;-76
2023/07/28 13:11:35;;;;;;;3.38;1.63;;;22.80;99.90;;;;;;10055284;28;20021;-77
2023/07/28 13:16:25;;;;;;;2.67;1.77;;;22.90;99.90;;;;;;10058607;28;20029;-74
2023/07/28 13:21:16;;;;;;;5.63;1.98;;;23.00;99.90;;;;;;10058090;28;20541;-76
2023/07/28 13:26:07;;;;;;;2.28;1.42;;;22.90;99.90;;;;;;10056447;28;20044;-75
2023/07/28 13:30:57;;;;;;;3.55;2.00;;;22.90;99.90;;;;;;10057910;28;20053;-77
2023/07/28 13:35:48;;;;;;;3.33;2.03;;;23.00;99.90;;;;;;10055991;28;20041;-76
2023/07/28 13:40:39;;;;;;;3.17;2.35;;;23.00;99.90;;;;;;10053861;28;20026;-75
2023/07/28 13:45:30;;;;;;;3.08;2.20;;;22.90;99.90;;;;;;10053072;28;20052;-76
2023/07/28 13:50:21;;;;;;;2.83;2.13;;;22.90;99.90;;;;;;10052936;28;20021;-75
2023/07/28 13:55:11;;;;;;;2.40;1.83;;;22.90;99.90;;;;;;10055483;28;20053;-76
2023/07/28 14:00:03;;;;;;;3.50;2.22;;;22.90;99.90;;;;;;10057984;28;20692;-75
2023/07/28 14:04:54;;;;;;;3.38;2.20;;;23.00;99.90;;;;;;10055734;28;20034;-77
2023/07/28 14:09:45;;;;;;;2.95;1.88;;;23.00;99.90;;;;;;10054006;28;20025;-77
2023/07/28 14:14:36;;;;;;;3.78;1.67;;;23.00;99.90;;;;;;10053427;28;20041;-74
2023/07/28 14:19:26;;;;;;;3.10;1.95;;;23.00;99.90;;;;;;10055834;28;20036;-73
2023/07/28 14:24:17;;;;;;;5.10;2.50;;;22.90;99.90;;;;;;10054741;28;20030;-75
2023/07/28 14:29:08;;;;;;;5.25;2.10;;;23.00;99.90;;;;;;10058526;28;20036;-75
2023/07/28 14:33:58;;;;;;;3.20;2.17;;;23.10;99.90;;;;;;10060962;28;20037;-78
2023/07/28 14:38:49;;;;;;;7.10;2.13;;;23.20;99.90;;;;;;10052842;28;20025;-75
2023/07/28 14:43:40;;;;;;;3.67;1.98;;;23.10;99.90;;;;;;10055471;28;20396;-76
2023/07/28 14:48:30;;;;;;;3.05;1.83;;;23.10;99.90;;;;;;10055731;28;20600;-75
2023/07/28 14:53:32;;;;;;;4.22;2.05;;;23.20;99.90;;;;;;10053113;28;20064;-78
2023/07/28 14:58:24;;;;;;;3.63;2.03;;;23.10;99.90;;;;;;10053829;28;20745;-79
2023/07/28 15:03:15;;;;;;;4.38;2.08;;;23.20;99.90;;;;;;10053977;28;20495;-77
2023/07/28 15:08:05;;;;;;;3.35;1.42;;;23.20;99.90;;;;;;10053442;28;20029;-75
2023/07/28 15:12:56;;;;;;;2.22;1.50;;;23.40;99.90;;;;;;10054978;28;20053;-73
2023/07/28 15:17:47;;;;;;;3.38;1.60;;;23.30;99.90;;;;;;10065273;28;20132;-74
2023/07/28 15:22:40;;;;;;;3.50;1.70;;;23.30;99.90;;;;;;10053919;28;20542;-76
2023/07/28 15:27:31;;;;;;;2.17;1.75;;;23.30;99.90;;;;;;10055115;28;20046;-75
2023/07/28 15:32:21;;;;;;;2.90;1.58;;;23.30;99.90;;;;;;10061919;28;20037;-75
2023/07/28 15:37:12;;;;;;;2.35;1.17;;;23.30;99.90;;;;;;10058081;28;20037;-72
2023/07/28 15:42:03;;;;;;;1.98;1.10;;;23.20;99.90;;;;;;10061866;28;20386;-72
2023/07/28 15:46:54;;;;;;;1.00;0.80;;;22.90;99.90;;;;;;10059886;28;20034;-70
2023/07/28 15:51:45;;;;;;;1.05;0.77;;;23.00;99.90;;;;;;10057488;28;20042;-73
2023/07/28 15:56:36;;;;;;;1.25;0.80;;;23.10;99.90;;;;;;10063403;28;20079;-72
2023/07/28 16:01:26;;;;;;;1.20;0.60;;;23.10;99.90;;;;;;10062164;28;20077;-73
2023/07/28 16:06:17;;;;;;;2.05;0.80;;;23.00;99.90;;;;;;10062248;28;20040;-72
2023/07/28 16:11:08;;;;;;;1.23;0.63;;;23.10;99.90;;;;;;10067081;28;20057;-72
2023/07/28 16:15:58;;;;;;;0.80;0.70;;;23.10;99.90;;;;;;10059534;28;20041;-72
2023/07/28 16:20:49;;;;;;;1.08;0.63;;;23.10;99.90;;;;;;10063271;28;20171;-72
2023/07/28 16:25:40;;;;;;;0.63;0.47;;;23.00;99.90;;;;;;10062048;28;20021;-73
2023/07/28 16:30:30;;;;;;;1.00;0.65;;;23.00;99.90;;;;;;10060666;28;20083;-73
2023/07/28 16:35:21;;;;;;;2.08;1.08;;;23.00;99.90;;;;;;10059973;28;20045;-73
2023/07/28 16:40:12;;;;;;;2.03;1.35;;;23.20;99.90;;;;;;10074590;28;20033;-73
2023/07/28 16:45:03;;;;;;;1.88;1.33;;;23.20;99.90;;;;;;10069106;28;20407;-73
2023/07/28 16:49:54;;;;;;;1.92;0.90;;;23.20;99.90;;;;;;10059967;28;20056;-73
2023/07/28 16:54:44;;;;;;;1.90;0.93;;;23.30;99.90;;;;;;10060035;28;20634;-74
2023/07/28 16:59:35;;;;;;;1.55;0.80;;;23.50;99.90;;;;;;10065464;28;20033;-73
2023/07/28 17:04:25;;;;;;;0.93;0.50;;;24.10;99.90;;;;;;10059474;28;20392;-73
2023/07/28 17:09:16;;;;;;;5.65;1.73;;;24.20;99.90;;;;;;10057992;28;20403;-73
2023/07/28 17:14:07;;;;;;;1.42;0.95;;;24.00;99.90;;;;;;10075824;28;20040;-73
2023/07/28 17:18:57;;;;;;;1.40;0.80;;;23.90;99.90;;;;;;10073919;28;20121;-73
2023/07/28 17:23:48;;;;;;;1.13;0.82;;;23.80;99.90;;;;;;10074016;28;20029;-73
2023/07/28 17:28:38;;;;;;;3.30;0.93;;;23.70;99.90;;;;;;10060995;28;20033;-73
2023/07/28 17:33:29;;;;;;;4.03;1.15;;;23.70;99.90;;;;;;10057740;28;20118;-73
2023/07/28 17:38:20;;;;;;;2.47;0.98;;;23.60;99.90;;;;;;10058199;28;20088;-73
2023/07/28 17:43:11;;;;;;;2.15;1.20;;;23.60;99.90;;;;;;10059637;28;20087;-73
2023/07/28 17:48:04;;;;;;;1.92;1.02;;;23.50;99.90;;;;;;10062320;28;20510;-73
2023/07/28 17:52:55;;;;;;;2.25;1.13;;;23.40;99.90;;;;;;10058733;28;20037;-73
2023/07/28 17:57:46;;;;;;;1.80;1.00;;;23.40;99.90;;;;;;10058844;28;20132;-73
2023/07/28 18:02:38;;;;;;;3.47;1.10;;;23.50;99.90;;;;;;10059903;28;20637;-73
2023/07/28 18:07:32;;;;;;;2.08;1.58;;;23.40;99.90;;;;;;10049885;28;20033;-73
2023/07/28 18:12:23;;;;;;;1.65;1.30;;;23.40;99.90;;;;;;10040458;28;20044;-74
2023/07/28 18:17:14;;;;;;;2.47;1.40;;;23.40;99.90;;;;;;10053219;28;20561;-73
2023/07/28 18:22:04;;;;;;;2.95;1.30;;;23.50;99.90;;;;;;10054235;28;20395;-74
2023/07/28 18:26:55;;;;;;;2.65;1.00;;;23.40;99.90;;;;;;10059503;28;20057;-73
2023/07/28 18:31:45;;;;;;;1.67;1.00;;;23.40;99.90;;;;;;10061326;28;20035;-73
2023/07/28 18:36:36;;;;;;;2.45;1.38;;;23.40;99.90;;;;;;10055372;28;20046;-74
2023/07/28 18:41:27;;;;;;;2.67;1.30;;;23.30;99.90;;;;;;10056418;28;20431;-74
2023/07/28 18:46:18;;;;;;;2.45;1.30;;;23.30;99.90;;;;;;10056252;28;20042;-74
2023/07/28 18:51:09;;;;;;;1.98;1.30;;;23.20;99.90;;;;;;10056649;28;20054;-74
2023/07/28 18:56:00;;;;;;;1.63;1.05;;;23.20;99.90;;;;;;10054422;28;20037;-74
2023/07/28 19:00:52;;;;;;;1.38;1.00;;;23.20;99.90;;;;;;10070493;28;20096;-73
2023/07/28 19:05:43;;;;;;;2.05;1.40;;;23.20;99.90;;;;;;10085456;28;20132;-74
2023/07/28 19:10:34;;;;;;;3.17;1.40;;;23.10;99.90;;;;;;10062146;28;20717;-73
2023/07/28 19:15:25;;;;;;;4.50;1.92;;;23.00;99.90;;;;;;10066325;28;20037;-74
2023/07/28 19:20:19;;;;;;;2.15;1.63;;;23.00;99.90;;;;;;10062444;28;20502;-73
2023/07/28 19:25:10;;;;;;;2.20;1.48;;;23.10;99.90;;;;;;10062956;28;20040;-74
2023/07/28 19:30:00;;;;;;;2.92;1.42;;;23.10;99.90;;;;;;10063276;28;20159;-74
2023/07/28 19:34:51;;;;;;;3.67;1.48;;;23.00;99.90;;;;;;10065921;28;20072;-73
2023/07/28 19:39:42;;;;;;;2.53;1.30;;;23.00;99.90;;;;;;10078227;28;20017;-74
2023/07/28 19:44:33;;;;;;;4.20;1.80;;;22.90;99.90;;;;;;10065845;28;20471;-74
2023/07/28 19:49:24;;;;;;;1.77;1.60;;;22.80;99.90;;;;;;10073051;28;20029;-74
2023/07/28 19:54:14;;;;;;;3.47;1.65;;;22.80;99.90;;;;;;10063443;28;20049;-74
2023/07/28 19:59:05;;;;;;;3.70;1.60;;;22.70;99.90;;;;;;10068731;28;20549;-73
2023/07/28 20:03:58;;;;;;;2.78;1.70;;;22.70;99.90;;;;;;10067477;28;20579;-72
2023/07/28 20:08:49;;;;;;;2.25;1.63;;;22.80;99.90;;;;;;10059851;28;20037;-73
2023/07/28 20:13:39;;;;;;;2.72;1.52;;;22.70;99.90;;;;;;10065710;28;20045;-73
2023/07/28 20:18:30;;;;;;;3.50;1.40;;;22.80;99.90;;;;;;10060735;28;20389;-73
2023/07/28 20:23:21;;;;;;;2.70;1.88;;;22.70;99.90;;;;;;10061642;28;20128;-74
2023/07/28 20:28:11;;;;;;;3.55;1.77;;;22.60;99.90;;;;;;10060847;28;20049;-74
2023/07/28 20:33:03;;;;;;;3.17;1.40;;;22.70;99.90;;;;;;10060969;28;20392;-74
2023/07/28 20:37:54;;;;;;;2.17;1.45;;;22.70;99.90;;;;;;10062637;28;20038;-74
2023/07/28 20:42:44;;;;;;;4.88;1.73;;;22.80;99.90;;;;;;10063460;28;20033;-74
2023/07/28 20:47:36;;;;;;;2.97;1.48;;;22.70;99.90;;;;;;10060566;28;20456;-74
2023/07/28 20:52:27;;;;;;;7.78;2.53;;;22.60;99.90;;;;;;10063958;28;20037;-75
2023/07/28 20:57:18;;;;;;;6.57;4.30;;;22.50;99.90;;;;;;10075670;28;20041;-75
2023/07/28 21:02:08;;;;;;;10.75;8.77;;;22.60;99.90;;;;;;10061063;28;20037;-75
2023/07/28 21:06:59;;;;;;;28.20;22.80;;;22.60;99.90;;;;;;10060090;28;20036;-73
2023/07/28 21:11:50;;;;;;;21.52;16.80;;;22.70;99.90;;;;;;10066209;28;20025;-73
2023/07/28 21:16:41;;;;;;;10.93;8.90;;;22.60;99.90;;;;;;10060597;28;20045;-73
2023/07/28 21:21:31;;;;;;;8.15;4.63;;;22.60;99.90;;;;;;10061341;28;20042;-72
2023/07/28 21:26:22;;;;;;;5.10;3.60;;;22.70;99.90;;;;;;10058326;28;20069;-72
2023/07/28 21:31:13;;;;;;;3.95;2.50;;;22.60;99.90;;;;;;10063450;28;20378;-73
2023/07/28 21:36:04;;;;;;;2.30;1.75;;;22.60;99.90;;;;;;10065550;28;20075;-73
2023/07/28 21:40:54;;;;;;;3.13;2.00;;;22.70;99.90;;;;;;10071119;28;20024;-72
2023/07/28 21:45:45;;;;;;;4.00;1.55;;;22.50;99.90;;;;;;10065308;28;20045;-74
2023/07/28 21:50:36;;;;;;;3.22;1.52;;;22.70;99.90;;;;;;10058584;28;20048;-72
2023/07/28 21:55:26;;;;;;;2.97;1.48;;;22.70;99.90;;;;;;10061707;28;20051;-73
2023/07/28 22:00:17;;;;;;;2.28;1.63;;;22.60;99.90;;;;;;10058488;28;20371;-74
2023/07/28 22:05:09;;;;;;;3.95;1.58;;;22.50;99.90;;;;;;10059111;28;20029;-73
2023/07/28 22:10:00;;;;;;;2.05;1.20;;;22.60;99.90;;;;;;10058705;28;20036;-73
2023/07/28 22:14:51;;;;;;;6.55;1.80;;;22.60;99.90;;;;;;10057044;28;20799;-74
2023/07/28 22:19:42;;;;;;;2.63;1.73;;;22.50;99.90;;;;;;10057606;28;20511;-74
2023/07/28 22:24:33;;;;;;;1.83;1.35;;;22.50;99.90;;;;;;10063874;28;20112;-73
2023/07/28 22:29:24;;;;;;;2.13;1.73;;;22.40;99.90;;;;;;10063063;28;20167;-74
2023/07/28 22:34:14;;;;;;;3.40;1.42;;;22.40;99.90;;;;;;10065898;28;20059;-74
2023/07/28 22:39:05;;;;;;;1.90;1.25;;;22.30;99.90;;;;;;10056092;28;20408;-74
2023/07/28 22:43:59;;;;;;;2.55;1.55;;;22.40;99.90;;;;;;10057843;28;20068;-74
2023/07/28 22:48:50;;;;;;;4.28;1.48;;;22.50;99.90;;;;;;10072607;28;20032;-73
2023/07/28 22:53:40;;;;;;;3.63;1.48;;;22.50;99.90;;;;;;10056100;28;20508;-75
2023/07/28 22:58:31;;;;;;;3.72;1.60;;;22.50;99.90;;;;;;10054723;28;20061;-74
2023/07/28 23:03:22;;;;;;;4.05;1.77;;;22.40;99.90;;;;;;10055064;28;20022;-75
2023/07/28 23:08:12;;;;;;;2.22;1.23;;;22.30;99.90;;;;;;10049984;28;20388;-78
2023/07/28 23:13:04;;;;;;;3.30;1.23;;;22.40;99.90;;;;;;10056465;28;20025;-78
2023/07/28 23:17:54;;;;;;;2.72;1.15;;;22.20;99.90;;;;;;10055596;28;20102;-73
2023/07/28 23:22:45;;;;;;;2.08;1.38;;;22.30;99.90;;;;;;10072119;28;20098;-73
2023/07/28 23:27:36;;;;;;;4.32;1.33;;;22.20;99.90;;;;;;10054960;28;20323;-70
2023/07/28 23:32:27;;;;;;;3.60;1.45;;;22.10;99.90;;;;;;10055988;28;20033;-72
2023/07/28 23:37:18;;;;;;;2.90;1.08;;;22.10;99.90;;;;;;10050945;28;20041;-75
2023/07/28 23:42:09;;;;;;;2.08;1.50;;;22.20;99.90;;;;;;10054752;28;20372;-71
2023/07/28 23:47:00;;;;;;;1.77;1.50;;;22.30;99.90;;;;;;10070452;28;20124;-72
2023/07/28 23:51:50;;;;;;;1.40;1.20;;;22.20;99.90;;;;;;10069161;28;20124;-73
2023/07/28 23:56:41;;;;;;;1.75;1.10;;;22.20;99.90;;;;;;10061314;28;20045;-72
